createdAt,value
2018-06-12T00:02:21.534Z,4.03
2018-06-12T00:04:50.041Z,3.47
2018-06-12T00:07:18.585Z,5.93
2018-06-12T00:09:47.130Z,7.47
2018-06-12T00:12:15.888Z,5.90
2018-06-12T00:14:44.393Z,6.23
2018-06-12T00:17:12.884Z,4.53
2018-06-12T00:19:41.402Z,4.40
2018-06-12T00:22:09.904Z,8.13
2018-06-12T00:24:38.416Z,4.93
2018-06-12T00:27:06.949Z,4.50
2018-06-12T00:29:35.445Z,5.40
2018-06-12T00:32:04.027Z,5.27
2018-06-12T00:34:32.536Z,8.13
2018-06-12T00:37:01.048Z,7.83
2018-06-12T00:39:29.545Z,8.40
2018-06-12T00:41:58.071Z,6.73
2018-06-12T00:44:26.722Z,6.83
2018-06-12T00:46:55.221Z,6.97
2018-06-12T00:49:23.742Z,6.90
2018-06-12T00:51:52.249Z,7.27
2018-06-12T00:54:20.761Z,7.20
2018-06-12T00:56:54.734Z,5.70
2018-06-12T00:59:23.213Z,6.70
2018-06-12T01:01:51.728Z,8.93
2018-06-12T01:04:20.244Z,7.40
2018-06-12T01:06:48.810Z,7.87
2018-06-12T01:09:17.345Z,8.63
2018-06-12T01:11:45.909Z,9.57
2018-06-12T01:14:14.415Z,10.53
2018-06-12T01:16:43.481Z,9.80
2018-06-12T01:19:12.037Z,10.20
2018-06-12T01:21:40.544Z,12.83
2018-06-12T01:24:09.096Z,10.77
2018-06-12T01:26:37.646Z,8.07
2018-06-12T01:29:06.199Z,10.20
2018-06-12T01:31:34.732Z,10.00
2018-06-12T01:34:03.238Z,8.57
2018-06-12T01:36:31.739Z,12.33
2018-06-12T01:39:00.257Z,8.83
2018-06-12T01:41:28.805Z,8.97
2018-06-12T01:43:57.356Z,7.13
2018-06-12T01:46:25.873Z,8.20
2018-06-12T01:48:54.528Z,8.83
2018-06-12T01:51:23.035Z,10.90
2018-06-12T01:53:51.545Z,11.67
2018-06-12T01:56:20.038Z,8.50
2018-06-12T01:58:48.556Z,9.40
2018-06-12T02:01:17.074Z,11.77
2018-06-12T02:03:45.637Z,8.20
2018-06-12T02:06:14.733Z,9.73
2018-06-12T02:08:43.218Z,7.97
2018-06-12T02:11:11.738Z,8.37
2018-06-12T02:13:40.512Z,8.43
2018-06-12T02:16:09.073Z,8.33
2018-06-12T02:18:37.594Z,12.63
2018-06-12T02:21:06.249Z,8.40
2018-06-12T02:23:34.739Z,8.73
2018-06-12T02:26:03.453Z,10.43
2018-06-12T02:28:31.945Z,9.73
2018-06-12T02:31:00.498Z,9.73
2018-06-12T02:33:29.015Z,8.50
2018-06-12T02:35:57.666Z,9.77
2018-06-12T02:38:26.437Z,8.73
2018-06-12T02:40:55.113Z,10.67
2018-06-12T02:43:23.612Z,10.53
2018-06-12T02:45:52.146Z,10.87
2018-06-12T02:48:20.674Z,12.13
2018-06-12T02:50:49.190Z,10.03
2018-06-12T02:53:17.815Z,8.70
2018-06-12T02:55:46.300Z,9.73
2018-06-12T02:58:14.793Z,8.97
2018-06-12T03:00:43.296Z,8.83
2018-06-12T03:03:11.863Z,10.10
2018-06-12T03:05:40.365Z,8.47
2018-06-12T03:08:08.880Z,11.83
2018-06-12T03:10:37.396Z,11.90
2018-06-12T03:13:05.896Z,10.77
2018-06-12T03:15:34.404Z,11.67
2018-06-12T03:18:02.916Z,13.53
2018-06-12T03:20:36.996Z,13.17
2018-06-12T03:23:05.568Z,11.83
2018-06-12T03:25:34.380Z,13.30
2018-06-12T03:28:03.664Z,12.93
2018-06-12T03:30:32.165Z,13.67
2018-06-12T03:33:00.679Z,12.87
2018-06-12T03:35:29.212Z,10.57
2018-06-12T03:37:57.777Z,11.73
2018-06-12T03:40:26.294Z,11.57
2018-06-12T03:42:54.845Z,12.30
2018-06-12T03:45:23.342Z,10.77
2018-06-12T03:47:51.851Z,12.13
2018-06-12T03:50:20.365Z,14.33
2018-06-12T03:52:48.968Z,13.57
2018-06-12T03:55:17.527Z,15.17
2018-06-12T03:57:46.110Z,13.47
2018-06-12T04:00:14.627Z,13.57
2018-06-12T04:02:43.152Z,13.37
2018-06-12T04:05:11.676Z,12.63
2018-06-12T04:07:40.233Z,14.10
2018-06-12T04:10:08.752Z,15.50
2018-06-12T04:12:37.270Z,16.10
2018-06-12T04:15:05.875Z,14.13
2018-06-12T04:17:34.450Z,16.00
2018-06-12T04:20:03.050Z,14.83
2018-06-12T04:22:31.679Z,17.83
2018-06-12T04:25:00.164Z,14.43
2018-06-12T04:27:28.678Z,15.77
2018-06-12T04:29:57.764Z,15.60
2018-06-12T04:32:26.272Z,15.40
2018-06-12T04:34:54.794Z,13.77
2018-06-12T04:37:23.285Z,17.23
2018-06-12T04:39:51.805Z,13.93
2018-06-12T04:42:20.369Z,15.80
2018-06-12T04:44:48.872Z,12.37
2018-06-12T04:47:17.359Z,15.97
2018-06-12T04:49:45.871Z,13.53
2018-06-12T04:52:14.364Z,11.40
2018-06-12T04:54:42.887Z,14.80
2018-06-12T04:57:11.426Z,14.10
2018-06-12T04:59:39.996Z,16.77
2018-06-12T05:02:08.548Z,18.87
2018-06-12T05:04:37.055Z,14.73
2018-06-12T05:07:05.574Z,16.57
2018-06-12T05:09:34.126Z,15.87
2018-06-12T05:12:02.684Z,15.13
2018-06-12T05:14:31.145Z,16.97
2018-06-12T05:16:59.720Z,17.57
2018-06-12T05:19:28.448Z,15.03
2018-06-12T05:21:56.950Z,21.97
2018-06-12T05:24:25.495Z,18.43
2018-06-12T05:26:53.999Z,17.80
2018-06-12T05:29:22.548Z,19.03
2018-06-12T05:31:51.075Z,19.60
2018-06-12T05:34:20.113Z,19.17
2018-06-12T05:36:48.642Z,31.30
2018-06-12T05:39:17.193Z,19.87
2018-06-12T05:41:46.726Z,19.07
2018-06-12T05:44:15.265Z,17.43
2018-06-12T05:46:43.863Z,16.90
2018-06-12T05:49:12.384Z,18.33
2018-06-12T05:51:40.944Z,16.60
2018-06-12T05:54:09.454Z,16.40
2018-06-12T05:56:37.982Z,19.73
2018-06-12T05:59:06.511Z,18.70
2018-06-12T06:01:35.041Z,17.80
2018-06-12T06:04:03.585Z,23.23
2018-06-12T06:06:32.161Z,17.93
2018-06-12T06:09:00.809Z,20.30
2018-06-12T06:11:29.376Z,19.63
2018-06-12T06:13:57.929Z,17.23
2018-06-12T06:16:26.443Z,16.53
2018-06-12T06:18:54.951Z,14.50
2018-06-12T06:21:23.469Z,16.00
2018-06-12T06:23:52.022Z,14.60
2018-06-12T06:26:20.553Z,11.37
2018-06-12T06:28:49.076Z,12.13
2018-06-12T06:31:17.636Z,12.73
2018-06-12T06:33:46.154Z,12.27
2018-06-12T06:36:14.765Z,11.83
2018-06-12T06:38:43.339Z,12.67
2018-06-12T06:41:11.883Z,12.93
2018-06-12T06:43:40.580Z,11.87
2018-06-12T06:46:09.131Z,10.47
2018-06-12T06:48:37.646Z,10.43
2018-06-12T06:51:06.110Z,9.97
2018-06-12T06:53:34.723Z,11.90
2018-06-12T06:56:03.223Z,10.97
2018-06-12T06:58:31.827Z,11.70
2018-06-12T07:01:00.325Z,9.47
2018-06-12T07:03:28.834Z,10.50
2018-06-12T07:05:57.348Z,10.37
2018-06-12T07:08:25.853Z,9.83
2018-06-12T07:10:54.773Z,11.53
2018-06-12T07:13:23.295Z,11.20
2018-06-12T07:15:51.908Z,9.00
2018-06-12T07:18:20.417Z,9.43
2018-06-12T07:21:51.726Z,12.43
2018-06-12T07:24:20.246Z,10.93
2018-06-12T07:26:48.744Z,10.97
2018-06-12T07:29:17.261Z,10.63
2018-06-12T07:31:45.924Z,14.03
2018-06-12T07:34:14.498Z,11.80
2018-06-12T07:36:43.020Z,12.70
2018-06-12T07:39:11.535Z,9.77
2018-06-12T07:41:40.545Z,12.10
2018-06-12T07:44:09.079Z,10.87
2018-06-12T07:46:37.726Z,11.40
2018-06-12T07:49:06.232Z,12.13
2018-06-12T07:51:34.752Z,7.43
2018-06-12T07:54:03.302Z,7.70
2018-06-12T07:56:31.807Z,10.00
2018-06-12T07:59:00.308Z,8.83
2018-06-12T08:01:28.810Z,10.83
2018-06-12T08:03:57.311Z,13.63
2018-06-12T08:06:25.842Z,8.30
2018-06-12T08:08:54.345Z,10.90
2018-06-12T08:11:22.853Z,9.43
2018-06-12T08:13:51.828Z,8.97
2018-06-12T08:16:20.329Z,10.83
2018-06-12T08:18:48.846Z,8.23
2018-06-12T08:21:17.342Z,8.30
2018-06-12T08:23:45.836Z,3.90
2018-06-12T08:26:14.320Z,4.43
2018-06-12T08:28:42.812Z,6.00
2018-06-12T08:31:11.333Z,5.50
2018-06-12T08:33:39.841Z,5.97
2018-06-12T08:36:08.407Z,5.63
2018-06-12T08:38:36.898Z,4.43
2018-06-12T08:41:05.618Z,3.03
2018-06-12T08:43:34.126Z,5.40
2018-06-12T08:46:02.857Z,6.60
2018-06-12T08:48:31.381Z,8.87
2018-06-12T08:50:59.882Z,5.50
2018-06-12T08:53:28.397Z,3.20
2018-06-12T08:55:56.908Z,6.07
2018-06-12T08:58:25.472Z,3.63
2018-06-12T09:00:53.984Z,4.13
2018-06-12T09:03:22.522Z,3.67
2018-06-12T09:05:51.033Z,2.57
2018-06-12T09:08:19.580Z,3.97
2018-06-12T09:10:48.095Z,2.53
2018-06-12T09:13:16.604Z,1.70
2018-06-12T09:15:45.122Z,3.10
2018-06-12T09:18:13.673Z,1.70
2018-06-12T09:20:42.185Z,3.30
2018-06-12T09:23:10.693Z,2.50
2018-06-12T09:25:39.192Z,3.70
2018-06-12T09:28:07.764Z,2.83
2018-06-12T09:30:36.289Z,1.97
2018-06-12T09:33:04.822Z,4.97
2018-06-12T09:35:33.327Z,2.10
2018-06-12T09:38:01.881Z,4.77
2018-06-12T09:40:30.437Z,3.90
2018-06-12T09:42:58.937Z,4.03
2018-06-12T09:45:27.457Z,3.33
2018-06-12T09:47:56.021Z,5.73
2018-06-12T09:50:24.590Z,2.43
2018-06-12T09:52:53.110Z,8.50
2018-06-12T09:55:21.630Z,2.20
2018-06-12T09:57:50.228Z,4.13
2018-06-12T10:00:22.864Z,5.73
2018-06-12T10:02:51.430Z,5.80
2018-06-12T10:05:19.943Z,7.13
2018-06-12T10:07:48.458Z,5.13
2018-06-12T10:10:17.034Z,5.37
2018-06-12T10:12:45.552Z,2.87
2018-06-12T10:15:14.058Z,2.40
2018-06-12T10:17:42.557Z,3.30
2018-06-12T10:20:11.048Z,2.93
2018-06-12T10:22:40.140Z,2.43
2018-06-12T10:25:08.666Z,1.70
2018-06-12T10:27:37.154Z,5.07
2018-06-12T10:30:05.964Z,1.70
2018-06-12T10:32:34.461Z,1.60
2018-06-12T10:35:02.970Z,2.33
2018-06-12T10:37:31.479Z,2.60
2018-06-12T10:40:00.031Z,1.73
2018-06-12T10:42:28.544Z,1.70
2018-06-12T10:44:57.069Z,1.97
2018-06-12T10:47:25.577Z,1.87
2018-06-12T10:49:54.184Z,1.80
2018-06-12T10:52:22.679Z,1.70
2018-06-12T10:54:51.317Z,1.80
2018-06-12T10:57:19.805Z,2.30
2018-06-12T10:59:48.326Z,1.50
2018-06-12T11:02:17.070Z,1.50
2018-06-12T11:04:45.613Z,3.90
2018-06-12T11:07:14.104Z,2.33
2018-06-12T11:09:42.605Z,2.63
2018-06-12T11:12:11.111Z,2.50
2018-06-12T11:14:39.596Z,1.97
2018-06-12T11:17:08.101Z,1.60
2018-06-12T11:19:36.602Z,3.23
2018-06-12T11:22:05.118Z,2.10
2018-06-12T11:24:33.621Z,1.33
2018-06-12T11:27:02.167Z,2.47
2018-06-12T11:29:30.672Z,2.17
2018-06-12T11:31:59.173Z,1.40
2018-06-12T11:34:27.758Z,1.00
2018-06-12T11:36:56.290Z,1.90
2018-06-12T11:39:24.782Z,1.00
2018-06-12T11:41:53.292Z,2.70
2018-06-12T11:44:21.793Z,1.53
2018-06-12T11:46:50.287Z,1.20
2018-06-12T11:49:18.909Z,2.30
2018-06-12T11:51:47.585Z,1.20
2018-06-12T11:54:16.111Z,1.20
2018-06-12T11:56:44.664Z,2.43
2018-06-12T11:59:13.213Z,1.63
2018-06-12T12:01:41.770Z,2.03
2018-06-12T12:04:10.233Z,1.17
2018-06-12T12:06:38.761Z,1.67
2018-06-12T12:09:08.209Z,1.10
2018-06-12T12:11:37.069Z,1.17
2018-06-12T12:14:05.886Z,1.20
2018-06-12T12:16:34.395Z,1.30
2018-06-12T12:19:02.930Z,2.27
2018-06-12T12:21:31.438Z,2.13
2018-06-12T12:23:59.937Z,1.37
2018-06-12T12:26:28.473Z,1.20
2018-06-12T12:28:56.960Z,1.10
2018-06-12T12:31:25.506Z,2.57
2018-06-12T12:33:54.001Z,1.60
2018-06-12T12:36:22.498Z,2.53
2018-06-12T12:38:51.024Z,2.00
2018-06-12T12:41:19.535Z,2.20
2018-06-12T12:43:48.074Z,1.00
2018-06-12T12:46:16.648Z,2.53
2018-06-12T12:48:45.138Z,1.70
2018-06-12T12:51:13.648Z,1.37
2018-06-12T12:53:42.565Z,2.00
2018-06-12T12:56:11.058Z,1.80
2018-06-12T12:58:39.565Z,1.40
2018-06-12T13:01:08.064Z,1.63
2018-06-12T13:03:36.621Z,2.30
2018-06-12T13:06:05.123Z,1.20
2018-06-12T13:08:33.637Z,3.93
2018-06-12T13:11:02.145Z,2.20
2018-06-12T13:13:30.666Z,3.17
2018-06-12T13:15:59.231Z,1.80
2018-06-12T13:18:27.729Z,2.67
2018-06-12T13:20:56.216Z,2.77
2018-06-12T13:23:24.701Z,1.53
2018-06-12T13:25:53.196Z,2.33
2018-06-12T13:28:21.725Z,3.03
2018-06-12T13:30:50.221Z,0.90
2018-06-12T13:33:18.938Z,3.13
2018-06-12T13:35:47.841Z,2.23
2018-06-12T13:38:16.584Z,1.20
2018-06-12T13:40:45.151Z,1.50
2018-06-12T13:43:13.856Z,1.03
2018-06-12T13:45:42.391Z,2.57
2018-06-12T13:48:11.372Z,2.50
2018-06-12T13:50:39.943Z,1.70
2018-06-12T13:53:08.796Z,1.10
2018-06-12T13:55:37.509Z,1.00
2018-06-12T13:58:06.030Z,1.00
2018-06-12T14:00:34.615Z,2.37
2018-06-12T14:03:03.140Z,1.80
2018-06-12T14:05:31.649Z,2.10
2018-06-12T14:08:00.759Z,0.73
2018-06-12T14:10:29.266Z,1.50
2018-06-12T14:12:57.763Z,1.10
2018-06-12T14:15:26.284Z,1.30
2018-06-12T14:17:54.816Z,0.70
2018-06-12T14:20:23.321Z,1.67
2018-06-12T14:22:51.836Z,1.10
2018-06-12T14:25:20.369Z,0.80
2018-06-12T14:27:48.890Z,1.33
2018-06-12T14:30:17.401Z,1.20
2018-06-12T14:32:45.919Z,0.93
2018-06-12T14:35:14.413Z,0.80
2018-06-12T14:37:42.915Z,1.30
2018-06-12T14:40:11.473Z,1.73
2018-06-12T14:42:39.985Z,0.80
2018-06-12T14:45:08.488Z,0.90
2018-06-12T14:47:36.981Z,1.27
2018-06-12T14:50:05.512Z,1.40
2018-06-12T14:52:34.030Z,2.30
2018-06-12T14:55:02.551Z,1.27
2018-06-12T14:57:31.069Z,0.90
2018-06-12T14:59:59.566Z,1.67
2018-06-12T15:02:28.085Z,0.80
2018-06-12T15:04:56.612Z,1.53
2018-06-12T15:07:25.122Z,1.10
2018-06-12T15:09:53.629Z,1.30
2018-06-12T15:12:22.314Z,1.87
2018-06-12T15:14:50.836Z,0.90
2018-06-12T15:17:19.340Z,2.47
2018-06-12T15:19:47.992Z,0.80
2018-06-12T15:22:16.494Z,2.00
2018-06-12T15:24:45.006Z,1.40
2018-06-12T15:27:13.514Z,1.17
2018-06-12T15:29:42.040Z,1.07
2018-06-12T15:32:10.557Z,1.33
2018-06-12T15:34:39.084Z,1.50
2018-06-12T15:37:07.592Z,1.90
2018-06-12T15:39:36.146Z,1.03
2018-06-12T15:42:04.710Z,1.00
2018-06-12T15:44:33.623Z,0.97
2018-06-12T15:47:02.157Z,1.00
2018-06-12T15:49:30.770Z,1.00
2018-06-12T15:51:59.265Z,3.07
2018-06-12T15:54:27.757Z,1.23
2018-06-12T15:56:56.368Z,2.60
2018-06-12T15:59:24.869Z,2.87
2018-06-12T16:01:53.394Z,1.17
2018-06-12T16:04:21.897Z,0.93
2018-06-12T16:06:50.392Z,3.17
2018-06-12T16:09:18.929Z,3.30
2018-06-12T16:11:47.434Z,1.20
2018-06-12T16:14:15.939Z,1.23
2018-06-12T16:16:44.511Z,1.73
2018-06-12T16:19:13.021Z,2.70
2018-06-12T16:21:41.525Z,1.13
2018-06-12T16:24:10.040Z,3.47
2018-06-12T16:26:38.562Z,2.33
2018-06-12T16:29:07.057Z,2.00
2018-06-12T16:31:35.569Z,3.20
2018-06-12T16:34:04.112Z,1.20
2018-06-12T16:36:32.621Z,2.30
2018-06-12T16:39:01.187Z,2.17
2018-06-12T16:41:29.697Z,2.30
2018-06-12T16:43:58.204Z,3.47
2018-06-12T16:46:26.714Z,1.20
2018-06-12T16:48:55.308Z,1.77
2018-06-12T16:51:23.828Z,6.17
2018-06-12T16:53:52.353Z,6.13
2018-06-12T16:56:20.924Z,2.47
2018-06-12T16:58:49.597Z,6.83
2018-06-12T17:01:18.141Z,9.47
2018-06-12T17:03:46.646Z,7.13
2018-06-12T17:06:15.149Z,11.40
2018-06-12T17:08:43.646Z,7.33
2018-06-12T17:11:12.152Z,6.30
2018-06-12T17:13:40.683Z,4.70
2018-06-12T17:16:09.223Z,5.40
2018-06-12T17:18:37.727Z,3.67
2018-06-12T17:21:06.417Z,5.00
2018-06-12T17:23:34.948Z,7.87
2018-06-12T17:26:03.506Z,6.10
2018-06-12T17:28:32.024Z,5.73
2018-06-12T17:31:00.530Z,1.97
2018-06-12T17:33:29.039Z,3.37
2018-06-12T17:35:57.570Z,2.83
2018-06-12T17:38:26.074Z,2.63
2018-06-12T17:40:54.565Z,2.77
2018-06-12T17:43:23.052Z,2.27
2018-06-12T17:45:51.640Z,2.70
2018-06-12T17:48:20.162Z,3.40
2018-06-12T17:50:48.670Z,7.20
2018-06-12T17:53:17.590Z,2.70
2018-06-12T17:55:46.194Z,3.00
2018-06-12T17:58:14.745Z,1.70
2018-06-12T18:00:43.322Z,5.80
2018-06-12T18:03:11.825Z,3.93
2018-06-12T18:05:40.355Z,4.03
2018-06-12T18:08:08.852Z,2.07
2018-06-12T18:10:37.341Z,4.87
2018-06-12T18:13:05.869Z,3.37
2018-06-12T18:15:34.385Z,2.17
2018-06-12T18:18:02.921Z,2.37
2018-06-12T18:20:31.454Z,3.80
2018-06-12T18:22:59.971Z,3.20
2018-06-12T18:25:28.624Z,3.07
2018-06-12T18:27:57.135Z,3.77
2018-06-12T18:30:25.712Z,3.53
2018-06-12T18:32:54.220Z,4.63
2018-06-12T18:35:22.758Z,5.90
2018-06-12T18:37:51.352Z,4.17
2018-06-12T18:40:19.932Z,4.00
2018-06-12T18:42:48.491Z,6.67
2018-06-12T18:45:17.242Z,6.53
2018-06-12T18:47:46.077Z,2.40
2018-06-12T18:50:14.865Z,2.53
2018-06-12T18:52:43.527Z,4.43
2018-06-12T18:55:12.215Z,4.07
2018-06-12T18:57:40.913Z,2.40
2018-06-12T19:00:09.612Z,2.30
2018-06-12T19:02:38.436Z,3.00
2018-06-12T19:05:07.160Z,3.10
2018-06-12T19:07:35.878Z,3.50
2018-06-12T19:10:04.635Z,3.83
2018-06-12T19:12:33.372Z,4.23
2018-06-12T19:15:02.128Z,3.43
2018-06-12T19:17:30.894Z,4.23
2018-06-12T19:19:59.681Z,2.80
2018-06-12T19:22:28.471Z,4.83
2018-06-12T19:24:57.291Z,3.77
2018-06-12T19:27:26.202Z,5.63
2018-06-12T19:29:55.084Z,3.77
2018-06-12T19:32:23.977Z,5.57
2018-06-12T19:34:52.839Z,5.30
2018-06-12T19:37:21.692Z,4.57
2018-06-12T19:39:50.734Z,2.37
2018-06-12T19:42:19.560Z,2.33
2018-06-12T19:44:48.407Z,4.07
2018-06-12T19:47:17.264Z,3.97
2018-06-12T19:49:46.217Z,3.63
2018-06-12T19:52:15.067Z,4.13
2018-06-12T19:54:43.916Z,2.77
2018-06-12T19:57:12.782Z,3.10
2018-06-12T19:59:41.590Z,4.80
2018-06-12T20:02:10.443Z,2.67
2018-06-12T20:04:39.262Z,3.47
2018-06-12T20:07:08.054Z,4.97
2018-06-12T20:09:36.937Z,4.20
2018-06-12T20:12:05.696Z,3.30
2018-06-12T20:14:34.381Z,2.50
2018-06-12T20:17:03.021Z,2.17
2018-06-12T20:19:31.720Z,1.73
2018-06-12T20:22:00.394Z,3.97
2018-06-12T20:24:28.991Z,2.37
2018-06-12T20:26:57.560Z,4.03
2018-06-12T20:29:26.143Z,1.80
2018-06-12T20:31:54.656Z,2.40
2018-06-12T20:34:23.219Z,3.07
2018-06-12T20:36:51.744Z,2.03
2018-06-12T20:39:20.248Z,3.10
2018-06-12T20:41:48.789Z,1.50
2018-06-12T20:44:17.332Z,2.20
2018-06-12T20:46:45.864Z,1.67
2018-06-12T20:49:14.377Z,2.03
2018-06-12T20:51:42.948Z,2.50
2018-06-12T20:54:11.490Z,2.63
2018-06-12T20:56:40.005Z,2.87
2018-06-12T20:59:08.491Z,3.47
2018-06-12T21:01:36.984Z,3.80
2018-06-12T21:04:05.624Z,3.83
2018-06-12T21:06:34.193Z,4.60
2018-06-12T21:09:02.817Z,4.53
2018-06-12T21:11:31.381Z,7.67
2018-06-12T21:13:59.953Z,7.50
2018-06-12T21:16:28.451Z,5.60
2018-06-12T21:18:56.965Z,9.07
2018-06-12T21:21:25.449Z,4.77
2018-06-12T21:23:53.962Z,4.13
2018-06-12T21:26:22.464Z,7.07
2018-06-12T21:28:50.944Z,3.63
2018-06-12T21:31:19.460Z,3.93
2018-06-12T21:33:47.951Z,3.37
2018-06-12T21:36:16.439Z,3.23
2018-06-12T21:38:45.002Z,3.63
2018-06-12T21:41:13.512Z,4.07
2018-06-12T21:43:42.167Z,7.37
2018-06-12T21:46:10.737Z,4.53
2018-06-12T21:48:39.215Z,5.13
2018-06-12T21:51:07.761Z,6.80
2018-06-12T21:53:36.252Z,5.40
2018-06-12T21:56:04.875Z,7.67
2018-06-12T21:58:33.345Z,7.07
2018-06-12T22:01:01.848Z,7.77
2018-06-12T22:03:30.301Z,8.30
2018-06-12T22:05:58.920Z,5.90
2018-06-12T22:08:27.510Z,5.53
2018-06-12T22:10:56.115Z,7.63
2018-06-12T22:13:24.576Z,6.17
2018-06-12T22:15:53.109Z,6.00
2018-06-12T22:18:21.569Z,7.37
2018-06-12T22:20:50.077Z,6.37
2018-06-12T22:23:18.583Z,6.13
2018-06-12T22:25:47.092Z,7.13
2018-06-12T22:28:15.588Z,6.73
2018-06-12T22:30:44.080Z,8.27
2018-06-12T22:33:12.580Z,7.37
2018-06-12T22:35:41.097Z,3.37
2018-06-12T22:38:09.578Z,2.50
2018-06-12T22:40:38.092Z,4.90
2018-06-12T22:43:06.649Z,3.00
2018-06-12T22:45:35.175Z,5.10
2018-06-12T22:48:03.675Z,5.70
2018-06-12T22:50:32.165Z,4.60
2018-06-12T22:53:00.667Z,4.40
2018-06-12T22:55:29.182Z,4.33
2018-06-12T22:57:57.676Z,6.50
2018-06-12T23:00:26.180Z,5.30
2018-06-12T23:02:54.688Z,6.40
2018-06-12T23:05:23.245Z,4.37
2018-06-12T23:07:51.914Z,5.93
2018-06-12T23:10:20.455Z,6.27
2018-06-12T23:12:49.020Z,5.70
2018-06-12T23:15:17.589Z,6.47
2018-06-12T23:17:46.098Z,8.40
2018-06-12T23:20:19.827Z,6.10
2018-06-12T23:22:48.393Z,8.10
2018-06-12T23:25:16.935Z,6.60
2018-06-12T23:27:45.454Z,8.27
2018-06-12T23:30:13.957Z,6.13
2018-06-12T23:32:42.470Z,8.03
2018-06-12T23:35:10.986Z,8.53
2018-06-12T23:37:39.481Z,7.27
2018-06-12T23:40:08.259Z,8.87
2018-06-12T23:42:36.765Z,7.23
2018-06-12T23:45:05.269Z,9.90
2018-06-12T23:47:33.804Z,9.13
2018-06-12T23:50:02.293Z,8.10
2018-06-12T23:52:30.781Z,9.80
2018-06-12T23:54:59.286Z,9.23
2018-06-12T23:57:27.916Z,9.73
2018-06-12T23:59:56.413Z,9.27
